Time;durP1;ratioP1;P1;durP2;ratioP2;P2;SDS_P1;SDS_P2;PMS_P1;PMS_P2;Temp;Humidity;BMP_temperature;BMP_pressure;BME280_temperature;BME280_humidity;BME280_pressure;Samples;Min_cycle;Max_cycle;Signal;HPM_P1;HPM_P2
2023/08/17 00:00:13;;;;;;;4.65;2.40;;;;;;;20.56;68.26;101706.31;3614590;39;20051;-65
2023/08/17 00:02:41;;;;;;;3.03;2.08;;;;;;;20.37;68.21;101685.22;3612003;39;20054;-65
2023/08/17 00:05:07;;;;;;;6.00;2.20;;;;;;;20.55;68.41;101719.13;3613979;39;20066;-65
2023/08/17 00:07:34;;;;;;;2.72;2.20;;;;;;;20.52;68.60;101713.94;3612528;39;20103;-64
2023/08/17 00:10:00;;;;;;;3.90;2.10;;;;;;;20.49;68.67;101714.16;3613817;39;20059;-64
2023/08/17 00:12:25;;;;;;;2.35;1.98;;;;;;;20.41;69.33;101700.31;3616100;39;20068;-64
2023/08/17 00:14:52;;;;;;;3.70;1.90;;;;;;;20.27;68.74;101696.09;3612392;39;20094;-64
2023/08/17 00:17:19;;;;;;;2.05;1.70;;;;;;;20.37;69.82;101707.06;3613208;39;20396;-63
2023/08/17 00:19:45;;;;;;;6.53;2.30;;;;;;;20.29;69.86;101698.69;3611698;39;20055;-64
2023/08/17 00:22:11;;;;;;;3.65;2.17;;;;;;;20.30;70.00;101697.69;3613923;39;20077;-64
2023/08/17 00:24:37;;;;;;;2.20;1.95;;;;;;;20.28;69.75;101711.47;3613199;39;20062;-65
2023/08/17 00:27:03;;;;;;;5.15;2.28;;;;;;;20.26;69.85;101707.16;3611977;39;20062;-64
2023/08/17 00:29:29;;;;;;;2.67;1.88;;;;;;;20.21;70.15;101695.78;3613623;39;20658;-64
2023/08/17 00:31:55;;;;;;;2.88;2.08;;;;;;;20.22;70.25;101697.50;3613250;39;20090;-64
2023/08/17 00:34:21;;;;;;;4.22;2.22;;;;;;;20.20;69.87;101697.63;3612825;39;20058;-64
2023/08/17 00:36:47;;;;;;;4.75;2.17;;;;;;;20.17;69.89;101693.34;3615153;39;20061;-64
2023/08/17 00:39:13;;;;;;;3.80;2.53;;;;;;;20.14;70.89;101695.47;3613667;39;20053;-64
2023/08/17 00:41:38;;;;;;;4.60;1.90;;;;;;;20.11;70.48;101699.34;3614486;39;20058;-64
2023/08/17 00:44:04;;;;;;;4.25;2.17;;;;;;;20.10;71.08;101703.03;3606489;39;20074;-64
2023/08/17 00:46:31;;;;;;;5.30;2.28;;;;;;;20.00;70.52;101699.41;3612102;39;20059;-64
2023/08/17 00:48:58;;;;;;;5.78;2.38;;;;;;;19.98;71.03;101698.69;3613829;39;20218;-64
2023/08/17 00:51:25;;;;;;;5.55;2.30;;;;;;;20.00;70.59;101701.25;3603863;39;20058;-64
2023/08/17 00:53:59;;;;;;;7.70;2.22;;;;;;;20.01;70.34;101714.75;3611999;39;20083;-64
2023/08/17 00:56:26;;;;;;;;;;;;;;;19.98;70.45;101711.44;3612962;39;20069;-64
2023/08/17 00:58:52;;;;;;;4.28;2.22;;;;;;;;;;3612533;39;21620;-64
2023/08/17 01:01:20;;;;;;;3.47;2.08;;;;;;;19.85;70.33;101689.81;3614822;39;20408;-64
2023/08/17 01:03:46;;;;;;;3.00;1.77;;;;;;;19.97;69.69;101716.03;3612135;39;20066;-64
2023/08/17 01:06:12;;;;;;;5.60;2.08;;;;;;;19.98;69.12;101719.63;3615323;39;20050;-64
2023/08/17 01:08:40;;;;;;;3.25;2.20;;;;;;;19.93;69.16;101712.72;3612259;39;20424;-64
2023/08/17 01:11:44;;;;;;;4.68;2.03;;;;;;;19.99;68.17;101724.97;3614592;39;20047;-64
2023/08/17 01:14:52;;;;;;;2.30;1.60;;;;;;;19.99;68.56;101719.50;3613020;39;20055;-64
2023/08/17 01:17:36;;;;;;;2.50;2.30;;;;;;;19.97;69.17;101713.31;3613468;39;20050;-64
2023/08/17 01:20:04;;;;;;;5.07;1.98;;;;;;;19.98;69.51;101714.16;3614654;39;20062;-64
2023/08/17 01:22:35;;;;;;;4.10;2.35;;;;;;;19.97;69.05;101713.31;3616614;39;20161;-64
2023/08/17 01:25:01;;;;;;;5.43;2.25;;;;;;;19.92;69.56;101704.69;3599638;39;20671;-64
2023/08/17 01:27:39;;;;;;;3.22;1.80;;;;;;;19.89;69.55;101707.69;3614005;39;20058;-64
2023/08/17 01:30:07;;;;;;;2.22;2.03;;;;;;;19.86;69.34;101707.94;3614612;39;20373;-64
2023/08/17 01:33:07;;;;;;;3.53;2.15;;;;;;;19.80;70.55;101700.28;3613276;39;20071;-64
2023/08/17 01:35:39;;;;;;;4.32;2.15;;;;;;;19.81;70.50;101702.88;3614166;39;20334;-65
2023/08/17 01:38:14;;;;;;;4.68;2.00;;;;;;;19.77;69.98;101708.75;3613100;39;20050;-64
2023/08/17 01:40:43;;;;;;;2.42;2.03;;;;;;;19.77;70.29;101700.56;3613385;39;20313;-64
2023/08/17 01:43:11;;;;;;;3.90;2.30;;;;;;;19.77;70.44;101695.09;3607541;39;20087;-64
2023/08/17 01:45:37;;;;;;;3.33;2.00;;;;;;;19.77;70.66;101692.38;3613139;39;20061;-64
2023/08/17 01:48:03;;;;;;;4.30;2.67;;;;;;;19.75;70.61;101691.63;3613280;39;20102;-64
2023/08/17 01:50:28;;;;;;;3.20;2.30;;;;;;;19.74;71.12;101687.19;3613884;39;20058;-64
2023/08/17 01:52:54;;;;;;;3.97;2.58;;;;;;;19.71;71.55;101691.91;3612356;39;20308;-64
2023/08/17 01:55:24;;;;;;;5.68;2.95;;;;;;;19.71;71.26;101686.44;3614447;39;20238;-64
2023/08/17 01:57:50;;;;;;;4.45;2.70;;;;;;;19.69;71.68;101680.28;3611786;39;20054;-64
2023/08/17 02:00:16;;;;;;;4.65;2.42;;;;;;;19.69;71.97;101690.28;3613911;39;20051;-63
2023/08/17 02:02:42;;;;;;;5.07;2.42;;;;;;;19.66;71.46;101688.72;3612887;39;20132;-64
2023/08/17 02:05:08;;;;;;;3.85;2.22;;;;;;;19.64;72.03;101687.97;3613337;39;20073;-64
2023/08/17 02:07:34;;;;;;;3.33;2.13;;;;;;;19.65;72.16;101686.09;3612807;39;20067;-64
2023/08/17 02:10:00;;;;;;;5.63;2.10;;;;;;;19.64;72.32;101696.16;3612004;39;20081;-64
2023/08/17 02:12:26;;;;;;;3.78;2.40;;;;;;;19.62;71.64;101700.84;3613463;39;20070;-64
2023/08/17 02:14:51;;;;;;;5.07;2.33;;;;;;;19.49;72.12;101686.53;3612191;39;20050;-65
2023/08/17 02:17:18;;;;;;;3.60;2.20;;;;;;;19.58;72.03;101702.09;3610893;39;20293;-64
2023/08/17 02:19:44;;;;;;;3.08;2.05;;;;;;;19.55;71.82;101702.38;3612975;39;20054;-64
2023/08/17 02:22:10;;;;;;;3.95;2.30;;;;;;;19.52;72.19;101702.63;3614729;39;20058;-64
2023/08/17 02:24:36;;;;;;;4.70;2.30;;;;;;;19.51;72.04;101700.91;3613087;39;20144;-65
2023/08/17 02:27:02;;;;;;;3.58;2.20;;;;;;;19.49;72.07;101703.75;3613550;39;20043;-65
2023/08/17 02:29:28;;;;;;;5.88;2.78;;;;;;;18.89;72.39;101600.81;3611207;39;20378;-64
2023/08/17 02:31:53;;;;;;;5.85;2.50;;;;;;;19.49;71.78;101698.31;3612607;39;20067;-65
2023/08/17 02:34:19;;;;;;;3.97;2.45;;;;;;;19.47;72.28;101707.59;3612518;39;20059;-64
2023/08/17 02:36:45;;;;;;;5.10;2.30;;;;;;;19.37;71.52;101687.59;3613358;39;20062;-64
2023/08/17 02:39:10;;;;;;;4.93;2.20;;;;;;;19.47;71.79;101704.88;3614259;39;20601;-64
2023/08/17 02:41:36;;;;;;;2.90;2.20;;;;;;;19.47;71.90;101697.59;3612638;39;20051;-64
2023/08/17 02:44:02;;;;;;;3.30;2.03;;;;;;;19.48;71.72;101701.19;3613238;39;20062;-64
2023/08/17 02:46:28;;;;;;;5.93;2.47;;;;;;;19.49;71.69;101694.72;3612290;39;20097;-64
2023/08/17 02:48:54;;;;;;;3.83;2.00;;;;;;;19.48;70.82;101684.81;3612433;39;20378;-64
2023/08/17 02:51:19;;;;;;;5.32;2.28;;;;;;;19.47;70.55;101696.69;3617321;39;20062;-64
2023/08/17 02:53:45;;;;;;;5.50;1.98;;;;;;;19.45;71.08;101691.38;3608291;39;20055;-63
2023/08/17 02:56:12;;;;;;;2.65;1.83;;;;;;;19.43;71.42;101687.06;3615054;39;20058;-64
2023/08/17 02:58:41;;;;;;;4.25;2.13;;;;;;;19.25;71.02;101641.31;3614048;39;20050;-63
2023/08/17 03:01:08;;;;;;;2.45;1.75;;;;;;;19.47;70.15;101680.34;3616910;39;20042;-64
2023/08/17 03:03:35;;;;;;;3.10;2.03;;;;;;;19.30;69.60;101659.97;3604690;39;20650;-63
2023/08/17 03:06:02;;;;;;;6.38;2.50;;;;;;;19.29;69.83;101665.56;3615170;39;20054;-63
2023/08/17 03:08:28;;;;;;;5.13;2.00;;;;;;;19.47;69.79;101680.34;3617671;39;20050;-63
2023/08/17 03:10:54;;;;;;;4.57;1.65;;;;;;;19.48;69.49;101687.53;3617421;39;20066;-64
2023/08/17 03:13:19;;;;;;;3.78;2.03;;;;;;;19.45;69.48;101685.06;3606814;39;20054;-63
2023/08/17 03:15:45;;;;;;;7.45;1.90;;;;;;;19.47;69.51;101683.97;3615393;39;20384;-64
2023/08/17 03:18:10;;;;;;;4.53;2.03;;;;;;;19.49;69.40;101681.09;3616650;39;20058;-64
2023/08/17 03:20:36;;;;;;;5.00;2.00;;;;;;;19.46;69.37;101681.34;3614793;39;20046;-64
2023/08/17 03:23:05;;;;;;;5.90;2.03;;;;;;;19.34;69.67;101652.41;3613283;39;20302;-64
2023/08/17 03:25:31;;;;;;;2.35;1.83;;;;;;;19.42;69.87;101679.88;3615229;39;20051;-65
2023/08/17 03:27:57;;;;;;;4.65;1.90;;;;;;;19.43;69.80;101684.34;3612708;39;20058;-65
2023/08/17 03:30:23;;;;;;;4.68;2.08;;;;;;;19.42;69.94;101678.00;3617044;39;20062;-65
2023/08/17 03:32:48;;;;;;;3.67;1.77;;;;;;;19.40;69.58;101687.31;3615009;39;20059;-65
2023/08/17 03:35:14;;;;;;;2.70;1.73;;;;;;;19.39;69.57;101677.41;3613062;39;20666;-65
2023/08/17 03:37:39;;;;;;;2.90;1.70;;;;;;;19.36;68.84;101669.50;3612432;39;20061;-65
2023/08/17 03:40:06;;;;;;;4.00;2.10;;;;;;;19.36;69.19;101683.13;3613639;39;20062;-64
2023/08/17 03:42:32;;;;;;;4.78;2.00;;;;;;;19.24;69.28;101668.69;3615461;39;20061;-65
2023/08/17 03:44:57;;;;;;;3.13;1.65;;;;;;;19.25;69.08;101674.00;3616508;39;20054;-64
2023/08/17 03:47:23;;;;;;;2.70;1.55;;;;;;;19.24;69.60;101672.25;3614045;39;20278;-64
2023/08/17 03:49:48;;;;;;;3.42;1.95;;;;;;;19.24;69.89;101683.16;3613477;39;20059;-65
2023/08/17 03:52:14;;;;;;;3.22;2.00;;;;;;;19.23;70.31;101676.00;3614018;39;20057;-64
2023/08/17 03:54:40;;;;;;;6.25;2.10;;;;;;;19.20;69.82;101678.97;3614338;39;20086;-64
2023/08/17 03:57:05;;;;;;;3.25;1.90;;;;;;;19.21;69.61;101682.56;3617157;39;20073;-65
2023/08/17 03:59:31;;;;;;;3.28;1.83;;;;;;;19.17;69.74;101679.25;3613424;39;20050;-64
2023/08/17 04:01:57;;;;;;;5.22;2.60;;;;;;;19.15;70.65;101681.22;3614461;39;20066;-64
2023/08/17 04:04:22;;;;;;;4.07;2.20;;;;;;;19.13;71.33;101691.41;3615312;39;20057;-64
2023/08/17 04:06:48;;;;;;;4.63;2.30;;;;;;;19.11;71.83;101692.53;3616817;39;20059;-65
2023/08/17 04:09:14;;;;;;;3.08;2.40;;;;;;;19.09;71.79;101694.50;3614500;39;20051;-64
2023/08/17 04:11:39;;;;;;;4.05;2.03;;;;;;;19.07;71.70;101702.81;3615132;39;20050;-64
2023/08/17 04:14:05;;;;;;;2.50;2.10;;;;;;;19.04;71.88;101703.06;3614137;39;20090;-64
2023/08/17 04:16:32;;;;;;;3.67;2.28;;;;;;;19.02;72.07;101702.31;3614265;39;20062;-65
2023/08/17 04:18:57;;;;;;;5.15;2.10;;;;;;;18.97;71.71;101708.19;3613303;39;20066;-65
2023/08/17 04:21:23;;;;;;;5.97;2.60;;;;;;;18.87;72.03;101690.88;3610022;39;20038;-64
2023/08/17 04:23:48;;;;;;;4.00;2.20;;;;;;;18.89;72.17;101699.75;3615664;39;20069;-64
2023/08/17 04:26:14;;;;;;;4.53;2.38;;;;;;;18.86;72.86;101699.16;3614349;39;20554;-64
2023/08/17 04:28:39;;;;;;;5.22;2.35;;;;;;;18.82;72.81;101714.03;3614764;39;20051;-64
2023/08/17 04:31:05;;;;;;;3.58;2.05;;;;;;;18.78;73.48;101713.44;3612487;39;20057;-64
2023/08/17 04:33:31;;;;;;;4.15;1.85;;;;;;;18.75;73.56;101714.53;3616336;39;20062;-64
2023/08/17 04:35:58;;;;;;;4.82;2.40;;;;;;;18.70;73.60;101708.56;3614823;39;20108;-64
2023/08/17 04:38:25;;;;;;;4.80;2.40;;;;;;;18.65;73.56;101704.47;3605547;39;20339;-64
2023/08/17 04:40:51;;;;;;;3.47;2.55;;;;;;;18.58;74.47;101706.84;3615321;39;20055;-64
2023/08/17 04:43:16;;;;;;;5.45;2.20;;;;;;;18.52;74.80;101693.72;3614255;39;20058;-64
2023/08/17 04:45:42;;;;;;;3.28;2.38;;;;;;;18.61;74.22;101703.00;3612661;39;20051;-64
2023/08/17 04:48:08;;;;;;;4.53;2.40;;;;;;;18.59;73.92;101710.44;3618534;39;20057;-64
2023/08/17 04:50:33;;;;;;;3.88;2.38;;;;;;;18.55;74.78;101701.63;3617554;39;20086;-65
2023/08/17 04:52:59;;;;;;;3.65;2.60;;;;;;;18.53;74.80;101709.94;3615191;39;20135;-65
2023/08/17 04:55:25;;;;;;;4.00;2.50;;;;;;;18.54;74.95;101710.81;3613282;39;20085;-65
2023/08/17 04:57:50;;;;;;;6.05;2.70;;;;;;;18.41;74.10;101681.00;3613296;39;20059;-65
2023/08/17 05:00:17;;;;;;;6.38;2.40;;;;;;;18.52;74.42;101701.88;3612179;39;20865;-65
2023/08/17 05:02:42;;;;;;;4.00;2.38;;;;;;;18.53;74.93;101703.63;3613929;39;20517;-65
2023/08/17 05:05:10;;;;;;;3.03;2.25;;;;;;;18.53;74.77;101709.94;3617210;39;20050;-65
2023/08/17 05:07:35;;;;;;;3.33;2.00;;;;;;;18.57;75.19;101705.13;3612197;39;20396;-64
2023/08/17 05:10:02;;;;;;;3.47;2.30;;;;;;;18.59;74.02;101708.59;3614310;39;20106;-63
2023/08/17 05:12:28;;;;;;;5.22;2.47;;;;;;;18.49;74.17;101691.25;3614892;39;20063;-64
2023/08/17 05:14:54;;;;;;;3.63;2.30;;;;;;;18.42;74.24;101682.72;3612699;39;20106;-64
2023/08/17 05:17:19;;;;;;;5.28;2.42;;;;;;;18.59;74.01;101705.88;3615865;39;20051;-64
2023/08/17 05:19:45;;;;;;;2.97;2.30;;;;;;;18.61;74.58;101698.41;3613507;39;20062;-63
2023/08/17 05:22:13;;;;;;;4.47;2.45;;;;;;;18.67;73.71;101703.34;3612648;39;20105;-64
2023/08/17 05:24:39;;;;;;;5.90;2.40;;;;;;;18.69;73.99;101706.84;3615884;39;20165;-64
2023/08/17 05:27:05;;;;;;;6.40;2.67;;;;;;;18.69;73.25;101701.38;3613290;39;20050;-64
2023/08/17 05:29:33;;;;;;;4.97;2.25;;;;;;;18.73;72.64;101705.63;3616187;39;20163;-64
2023/08/17 05:31:59;;;;;;;6.65;2.45;;;;;;;18.72;72.96;101703.88;3615181;39;20062;-64
2023/08/17 05:34:25;;;;;;;5.75;2.42;;;;;;;18.73;73.01;101705.63;3616526;39;20355;-65
2023/08/17 05:36:50;;;;;;;5.00;2.42;;;;;;;18.72;73.71;101709.34;3611731;39;20388;-66
2023/08/17 05:39:16;;;;;;;3.40;2.05;;;;;;;18.77;73.63;101707.13;3614638;39;20083;-64
2023/08/17 05:41:42;;;;;;;4.15;2.55;;;;;;;18.79;73.05;101707.84;3613976;39;20533;-64
2023/08/17 05:44:07;;;;;;;4.45;2.63;;;;;;;18.78;73.30;101703.38;3612943;39;20050;-64
2023/08/17 05:46:34;;;;;;;4.10;2.33;;;;;;;18.78;73.21;101699.81;3613281;39;20062;-66
2023/08/17 05:49:02;;;;;;;3.80;2.53;;;;;;;18.67;73.66;101676.13;3613114;39;20061;-65
2023/08/17 05:51:28;;;;;;;4.50;2.58;;;;;;;18.91;73.09;101714.13;3621074;39;20061;-64
2023/08/17 05:53:54;;;;;;;3.78;2.25;;;;;;;18.93;73.05;101706.69;3602356;39;20416;-64
2023/08/17 05:56:20;;;;;;;3.78;2.55;;;;;;;18.96;72.85;101719.19;3614869;39;20046;-65
2023/08/17 05:58:45;;;;;;;4.47;2.53;;;;;;;19.01;72.77;101714.22;3612322;39;20060;-65
2023/08/17 06:01:11;;;;;;;9.23;2.80;;;;;;;19.02;72.82;101714.09;3617264;39;20062;-65
2023/08/17 06:03:38;;;;;;;5.15;2.50;;;;;;;19.01;73.05;101720.53;3614708;39;20369;-65
2023/08/17 06:06:05;;;;;;;7.43;2.78;;;;;;;19.04;73.18;101718.56;3615218;39;20066;-65
2023/08/17 06:08:31;;;;;;;5.18;2.50;;;;;;;19.09;72.09;101722.63;3615812;39;20071;-66
2023/08/17 06:10:57;;;;;;;5.78;2.63;;;;;;;19.12;72.92;101707.88;3613306;39;20291;-65
2023/08/17 06:13:23;;;;;;;6.68;2.53;;;;;;;19.17;72.45;101720.13;3616061;39;20086;-65
2023/08/17 06:15:49;;;;;;;5.40;2.85;;;;;;;19.15;72.00;101722.09;3616455;39;20076;-65
2023/08/17 06:18:15;;;;;;;5.80;2.70;;;;;;;19.27;71.69;101725.66;3615894;39;20403;-65
2023/08/17 06:20:41;;;;;;;8.00;2.88;;;;;;;19.29;72.18;101733.72;3612089;39;20050;-65
2023/08/17 06:23:07;;;;;;;4.68;2.80;;;;;;;19.28;72.09;101721.94;3617882;39;20278;-65
2023/08/17 06:25:34;;;;;;;5.38;2.80;;;;;;;19.37;72.43;101728.47;3620035;39;20045;-65
2023/08/17 06:28:00;;;;;;;5.18;3.00;;;;;;;19.39;71.61;101735.53;3611255;39;20062;-65
2023/08/17 06:30:26;;;;;;;3.92;3.22;;;;;;;19.42;71.83;101731.69;3613401;39;20051;-65
2023/08/17 06:32:52;;;;;;;6.28;2.90;;;;;;;19.44;71.79;101730.56;3613718;39;20054;-65
2023/08/17 06:35:18;;;;;;;5.80;2.83;;;;;;;19.45;71.30;101728.72;3617111;39;20066;-65
2023/08/17 06:37:44;;;;;;;6.43;2.80;;;;;;;19.45;71.74;101728.72;3616792;39;20050;-65
2023/08/17 06:40:10;;;;;;;9.35;3.10;;;;;;;19.43;71.64;101730.69;3613450;39;20071;-65
2023/08/17 06:42:36;;;;;;;3.22;2.92;;;;;;;19.41;71.60;101730.84;3614031;39;20425;-65
2023/08/17 06:45:03;;;;;;;6.38;3.22;;;;;;;19.41;71.47;101733.56;3615750;39;20042;-65
2023/08/17 06:47:29;;;;;;;4.55;2.95;;;;;;;19.46;71.78;101741.34;3614854;39;20363;-65
2023/08/17 06:49:57;;;;;;;6.07;3.20;;;;;;;19.57;71.52;101735.84;3617287;39;20050;-65
2023/08/17 06:52:24;;;;;;;5.57;3.00;;;;;;;19.67;71.95;101738.69;3618602;39;20095;-65
2023/08/17 06:54:50;;;;;;;3.20;2.78;;;;;;;19.68;70.47;101735.81;3621200;39;20297;-65
2023/08/17 06:57:15;;;;;;;6.65;3.00;;;;;;;19.71;71.82;101735.53;3618635;39;20055;-65
2023/08/17 06:59:41;;;;;;;3.60;2.70;;;;;;;19.69;71.66;101721.19;3617871;39;20422;-65
2023/08/17 07:02:07;;;;;;;5.85;3.30;;;;;;;19.82;71.80;101731.91;3613859;39;20123;-65
2023/08/17 07:04:32;;;;;;;5.95;2.97;;;;;;;19.89;70.35;101733.09;3617306;39;20055;-65
2023/08/17 07:06:59;;;;;;;5.47;2.95;;;;;;;19.91;70.53;101731.09;3614263;39;20057;-64
2023/08/17 07:09:25;;;;;;;7.05;3.03;;;;;;;19.87;70.55;101736.94;3611887;39;20078;-64
2023/08/17 07:11:50;;;;;;;4.95;2.92;;;;;;;19.86;70.52;101735.22;3614885;39;20058;-65
2023/08/17 07:14:16;;;;;;;2.95;2.65;;;;;;;19.88;70.91;101734.06;3611160;39;20547;-65
2023/08/17 07:16:41;;;;;;;4.65;3.10;;;;;;;19.91;70.67;101735.69;3613101;39;20083;-65
2023/08/17 07:19:07;;;;;;;5.75;3.13;;;;;;;19.92;71.12;101734.69;3614566;39;21340;-65
2023/08/17 07:21:33;;;;;;;6.03;2.95;;;;;;;19.91;70.88;101732.94;3612288;39;20175;-65
2023/08/17 07:24:13;;;;;;;6.20;3.28;;;;;;;19.94;71.05;101730.81;3614600;39;20047;-65
2023/08/17 07:26:39;;;;;;;5.60;2.97;;;;;;;19.99;70.98;101733.16;3617661;39;20373;-65
2023/08/17 07:29:04;;;;;;;5.93;3.60;;;;;;;20.01;70.93;101733.88;3613399;39;20047;-64
2023/08/17 07:31:31;;;;;;;4.82;3.47;;;;;;;20.03;70.66;101733.75;3614323;39;20122;-65
2023/08/17 07:33:56;;;;;;;7.40;3.25;;;;;;;20.04;70.38;101733.59;3608745;39;20460;-65
2023/08/17 07:36:22;;;;;;;7.78;3.15;;;;;;;20.10;70.33;101734.94;3613974;39;20077;-65
2023/08/17 07:38:47;;;;;;;4.30;2.88;;;;;;;20.11;71.10;101728.50;3612332;39;20051;-64
2023/08/17 07:41:13;;;;;;;4.78;3.20;;;;;;;20.00;69.75;101713.03;3612233;39;20424;-65
2023/08/17 07:43:39;;;;;;;4.65;2.95;;;;;;;20.19;70.61;101734.13;3616530;39;20401;-65
2023/08/17 07:46:04;;;;;;;5.78;3.13;;;;;;;20.25;70.82;101733.59;3611417;39;20062;-65
2023/08/17 07:48:33;;;;;;;4.53;3.03;;;;;;;20.34;69.81;101737.38;3613727;39;20058;-65
2023/08/17 07:50:59;;;;;;;6.03;3.10;;;;;;;20.41;69.73;101739.41;3613828;39;20090;-63
2023/08/17 07:53:25;;;;;;;5.63;3.05;;;;;;;20.44;69.39;101740.16;3613068;39;20311;-65
2023/08/17 07:55:51;;;;;;;7.90;3.05;;;;;;;20.43;69.89;101735.72;3613899;39;20058;-65
2023/08/17 07:58:17;;;;;;;4.90;3.33;;;;;;;20.40;68.86;101740.44;3613539;39;20074;-65
2023/08/17 08:00:42;;;;;;;5.47;2.95;;;;;;;20.36;68.41;101738.09;3616898;39;20097;-65
2023/08/17 08:03:08;;;;;;;4.93;2.92;;;;;;;20.39;69.13;101741.44;3613180;39;20400;-65
2023/08/17 08:05:34;;;;;;;6.43;3.40;;;;;;;20.46;69.83;101740.91;3616321;39;20058;-65
2023/08/17 08:08:00;;;;;;;4.82;2.90;;;;;;;20.49;68.89;101741.47;3613519;39;20046;-65
2023/08/17 08:10:27;;;;;;;4.80;2.92;;;;;;;20.56;68.11;101737.22;3612123;39;20102;-64
2023/08/17 08:12:52;;;;;;;6.38;2.72;;;;;;;20.50;67.72;101740.47;3614590;39;20308;-65
2023/08/17 08:15:18;;;;;;;6.07;3.30;;;;;;;20.51;68.23;101739.50;3614468;39;20177;-65
2023/08/17 08:17:44;;;;;;;7.40;3.25;;;;;;;20.34;68.05;101699.16;3615481;39;20100;-65
2023/08/17 08:20:10;;;;;;;7.45;3.15;;;;;;;20.64;68.38;101736.53;3613982;39;20073;-65
2023/08/17 08:22:35;;;;;;;6.43;3.15;;;;;;;20.73;68.59;101735.69;3615584;39;20050;-65
2023/08/17 08:25:01;;;;;;;5.57;3.05;;;;;;;20.82;67.87;101743.06;3619873;39;20058;-65
2023/08/17 08:27:27;;;;;;;7.40;3.42;;;;;;;20.79;66.63;101739.75;3614925;39;20297;-65
2023/08/17 08:29:52;;;;;;;4.28;3.00;;;;;;;20.78;66.92;101743.50;3612095;39;20062;-65
2023/08/17 08:32:18;;;;;;;6.43;3.30;;;;;;;20.78;67.20;101754.44;3613664;39;20042;-65
2023/08/17 08:34:43;;;;;;;5.97;3.10;;;;;;;20.81;67.61;101740.47;3615529;39;20519;-65
2023/08/17 08:37:09;;;;;;;4.75;3.20;;;;;;;20.86;67.84;101744.50;3616102;39;20062;-65
2023/08/17 08:39:57;;;;;;;3.55;3.00;;;;;;;20.82;67.45;101747.66;3618672;39;20051;-65
2023/08/17 08:42:25;;;;;;;4.15;3.17;;;;;;;20.76;67.51;101749.09;3615884;39;20058;-65
2023/08/17 08:44:51;;;;;;;6.55;3.33;;;;;;;20.74;68.04;101751.09;3611770;39;20293;-65
2023/08/17 08:47:18;;;;;;;6.40;3.15;;;;;;;20.76;68.57;101742.75;3612583;39;20066;-65
2023/08/17 08:50:03;;;;;;;8.15;3.22;;;;;;;20.72;67.59;101741.31;3614208;39;20038;-65
2023/08/17 08:52:44;;;;;;;5.53;3.50;;;;;;;20.67;67.99;101740.84;3612804;39;20290;-65
2023/08/17 08:55:18;;;;;;;4.43;3.45;;;;;;;20.64;68.26;101734.66;3612617;39;20059;-64
2023/08/17 08:57:45;;;;;;;6.72;3.40;;;;;;;20.64;68.02;101731.91;3614377;39;20126;-65
2023/08/17 09:00:13;;;;;;;6.70;3.33;;;;;;;20.58;68.23;101732.50;3611473;39;20127;-65
2023/08/17 09:02:39;;;;;;;7.28;3.55;;;;;;;20.58;68.50;101721.56;3613143;39;20120;-65
2023/08/17 09:05:08;;;;;;;5.95;3.40;;;;;;;20.44;68.33;101705.50;3619901;39;20156;-65
2023/08/17 09:07:36;;;;;;;7.85;3.50;;;;;;;20.58;68.52;101726.16;3614574;39;20119;-65
2023/08/17 09:10:03;;;;;;;7.05;3.70;;;;;;;20.59;68.80;101726.03;3614514;39;20053;-65
2023/08/17 09:12:30;;;;;;;6.00;3.45;;;;;;;20.55;68.22;101712.75;3613569;39;20381;-65
2023/08/17 09:14:56;;;;;;;5.75;4.10;;;;;;;20.56;68.68;101718.09;3603763;39;20120;-67
2023/08/17 09:17:26;;;;;;;6.28;4.07;;;;;;;20.55;69.40;101716.38;3614158;39;20062;-65
2023/08/17 09:19:53;;;;;;;9.20;4.18;;;;;;;20.61;68.98;101723.13;3614148;39;20070;-65
2023/08/17 09:22:43;;;;;;;10.05;4.63;;;;;;;20.53;68.43;101726.56;3613032;39;20409;-65
2023/08/17 09:25:11;;;;;;;6.47;3.70;;;;;;;20.47;69.46;101721.63;3613374;39;20481;-65
2023/08/17 09:27:38;;;;;;;8.00;4.45;;;;;;;20.55;69.14;101732.78;3613914;39;20377;-65
2023/08/17 09:30:07;;;;;;;8.30;4.30;;;;;;;20.53;68.96;101725.72;3611634;39;20274;-64
2023/08/17 09:32:34;;;;;;;10.23;4.65;;;;;;;20.53;69.13;101726.56;3615347;39;20107;-64
2023/08/17 09:35:05;;;;;;;7.75;4.40;;;;;;;20.49;69.47;101722.38;3613077;39;20047;-64
2023/08/17 09:37:34;;;;;;;12.00;4.72;;;;;;;20.44;69.31;101724.63;3613475;39;20120;-64
2023/08/17 09:40:01;;;;;;;11.18;4.78;;;;;;;20.33;70.39;101702.84;3613199;39;20049;-63
2023/08/17 09:42:27;;;;;;;9.50;4.90;;;;;;;20.53;70.24;101723.84;3614046;39;20082;-64
2023/08/17 09:44:54;;;;;;;8.98;4.78;;;;;;;20.64;69.90;101723.72;3613074;39;20050;-66
2023/08/17 09:47:21;;;;;;;10.13;5.00;;;;;;;20.72;69.73;101714.00;3613758;39;20069;-64
2023/08/17 09:49:54;;;;;;;9.52;4.82;;;;;;;20.71;69.05;101728.63;3618775;39;20051;-64
2023/08/17 09:52:22;;;;;;;9.35;4.70;;;;;;;20.69;69.15;101723.31;3613912;39;20185;-64
2023/08/17 09:54:48;;;;;;;6.65;4.47;;;;;;;20.63;68.52;101724.72;3612738;39;20332;-65
2023/08/17 09:57:14;;;;;;;12.07;5.15;;;;;;;20.55;68.90;101713.66;3616205;39;20054;-65
2023/08/17 09:59:41;;;;;;;9.30;5.43;;;;;;;20.54;68.87;101717.38;3616866;39;20082;-65
2023/08/17 10:02:33;;;;;;;12.52;5.50;;;;;;;20.48;69.04;101712.41;3614649;39;20046;-65
2023/08/17 10:05:05;;;;;;;14.40;5.97;;;;;;;20.29;69.87;101679.56;3613302;39;20050;-65
2023/08/17 10:07:38;;;;;;;11.38;5.95;;;;;;;20.44;69.75;101710.13;3617469;39;20059;-65
2023/08/17 10:10:06;;;;;;;9.43;5.70;;;;;;;20.45;69.99;101706.38;3612079;39;20050;-64
2023/08/17 10:13:27;;;;;;;9.60;6.32;;;;;;;20.37;70.07;101702.47;3620037;39;20362;-65
2023/08/17 10:16:13;;;;;;;14.15;5.80;;;;;;;20.44;70.98;101704.66;3603160;39;20174;-65
2023/08/17 10:18:55;;;;;;;11.52;6.13;;;;;;;20.53;71.19;101688.31;3615578;39;20059;-65
2023/08/17 10:21:34;;;;;;;12.93;6.60;;;;;;;20.68;71.03;101701.59;3604702;39;20061;-65
2023/08/17 10:24:03;;;;;;;16.02;6.53;;;;;;;20.69;70.32;101696.00;3616565;39;20043;-65
2023/08/17 10:26:29;;;;;;;11.60;6.00;;;;;;;20.75;70.36;101697.31;3617782;39;20051;-65
2023/08/17 10:28:58;;;;;;;10.65;5.93;;;;;;;20.80;69.71;101695.88;3612649;39;20074;-65
2023/08/17 10:31:25;;;;;;;13.35;6.82;;;;;;;20.71;69.76;101684.91;3615396;39;20088;-65
2023/08/17 10:33:51;;;;;;;12.23;6.68;;;;;;;20.78;69.96;101694.31;3615291;39;20091;-65
2023/08/17 10:36:19;;;;;;;11.50;6.60;;;;;;;20.79;69.81;101690.56;3613005;39;20063;-66
2023/08/17 10:38:44;;;;;;;10.82;6.55;;;;;;;20.81;70.05;101691.28;3615467;39;20128;-65
2023/08/17 10:41:14;;;;;;;10.85;6.32;;;;;;;20.84;70.26;101701.94;3618185;39;20104;-65
2023/08/17 10:43:58;;;;;;;10.98;6.53;;;;;;;20.90;70.34;101693.19;3615261;39;20058;-64
2023/08/17 10:46:39;;;;;;;11.68;6.55;;;;;;;20.92;69.63;101698.50;3615068;39;20081;-65
2023/08/17 10:49:23;;;;;;;11.00;6.65;;;;;;;20.93;69.67;101692.91;3616473;39;20053;-65
2023/08/17 10:52:06;;;;;;;8.05;6.15;;;;;;;20.91;69.73;101694.03;3613745;39;20043;-65
2023/08/17 10:54:40;;;;;;;10.52;6.30;;;;;;;20.89;69.64;101694.16;3617126;39;20517;-66
2023/08/17 10:57:34;;;;;;;10.73;5.93;;;;;;;20.93;70.24;101689.28;3614862;39;20123;-65
2023/08/17 11:00:26;;;;;;;10.57;6.45;;;;;;;20.98;69.35;101685.13;3610846;39;20050;-66
2023/08/17 11:03:01;;;;;;;8.90;6.07;;;;;;;21.03;69.42;101691.03;3616696;39;20051;-66
2023/08/17 11:05:49;;;;;;;11.25;6.50;;;;;;;21.10;69.53;101692.19;3613134;39;20081;-65
2023/08/17 11:08:50;;;;;;;13.60;7.05;;;;;;;21.16;68.86;101689.91;3613172;39;20069;-64
2023/08/17 11:11:20;;;;;;;11.45;6.85;;;;;;;21.24;69.00;101692.78;3615347;39;20061;-64
2023/08/17 11:13:47;;;;;;;10.43;6.78;;;;;;;21.27;69.15;101692.50;3618963;39;20062;-64
2023/08/17 11:16:19;;;;;;;10.68;7.30;;;;;;;21.26;68.76;101696.25;3617613;39;20058;-64
2023/08/17 11:18:46;;;;;;;12.80;6.95;;;;;;;21.24;69.52;101700.97;3619106;39;20077;-65
2023/08/17 11:21:12;;;;;;;14.77;6.80;;;;;;;21.21;69.78;101687.59;3615687;39;20404;-64
2023/08/17 11:23:38;;;;;;;13.27;7.35;;;;;;;21.26;69.04;101697.09;3618575;39;20071;-64
2023/08/17 11:26:05;;;;;;;12.63;7.68;;;;;;;21.34;69.49;101696.38;3616479;39;20303;-65
2023/08/17 11:28:36;;;;;;;11.88;7.10;;;;;;;21.33;68.46;101702.84;3615934;39;20055;-64